Time;durP1;ratioP1;P1;durP2;ratioP2;P2;SDS_P1;SDS_P2;PMS_P1;PMS_P2;Temp;Humidity;BMP_temperature;BMP_pressure;BME280_temperature;BME280_humidity;BME280_pressure;Samples;Min_cycle;Max_cycle;Signal;HPM_P1;HPM_P2
2022/06/05 00:02:23;;;;;;;20.67;9.93;;;10.90;99.90;;;;;;5031472;28;20377;-79
2022/06/05 00:04:54;;;;;;;15.50;9.87;;;10.90;99.90;;;;;;5050097;28;20047;-79
2022/06/05 00:07:27;;;;;;;18.17;10.75;;;10.90;99.90;;;;;;5031269;28;20492;-79
2022/06/05 00:10:02;;;;;;;18.40;11.13;;;10.90;99.90;;;;;;5049614;28;20471;-79
2022/06/05 00:12:38;;;;;;;17.35;11.10;;;10.90;99.90;;;;;;5050544;28;20049;-79
2022/06/05 00:15:04;;;;;;;23.48;11.85;;;10.90;99.90;;;;;;5031254;28;20125;-79
2022/06/05 00:17:30;;;;;;;20.35;12.52;;;10.90;99.90;;;;;;5050054;28;20121;-79
2022/06/05 00:19:55;;;;;;;18.35;12.23;;;10.90;99.90;;;;;;5030847;28;20548;-79
2022/06/05 00:22:22;;;;;;;19.27;11.65;;;10.90;99.90;;;;;;5031588;28;20045;-79
2022/06/05 00:24:48;;;;;;;22.60;12.45;;;11.00;99.90;;;;;;5032295;28;20182;-79
2022/06/05 00:27:31;;;;;;;22.67;13.10;;;11.00;99.90;;;;;;5048951;28;20127;-79
2022/06/05 00:30:12;;;;;;;22.92;13.88;;;11.00;99.90;;;;;;5031657;28;20187;-79
2022/06/05 00:33:00;;;;;;;25.80;15.13;;;11.00;99.90;;;;;;5049991;28;20060;-79
2022/06/05 00:35:31;;;;;;;25.20;12.73;;;10.90;99.90;;;;;;5049647;28;20037;-79
2022/06/05 00:38:07;;;;;;;22.30;13.77;;;10.90;99.90;;;;;;5030935;28;20064;-79
2022/06/05 00:40:55;;;;;;;20.33;12.10;;;10.90;99.90;;;;;;5031682;28;20155;-79
2022/06/05 00:43:23;;;;;;;22.80;12.82;;;10.90;99.90;;;;;;5049310;28;20113;-79
2022/06/05 00:45:49;;;;;;;23.17;12.75;;;10.90;99.90;;;;;;5031887;28;20099;-79
2022/06/05 00:48:14;;;;;;;23.88;12.70;;;10.90;99.90;;;;;;5030178;28;20061;-79
2022/06/05 00:50:42;;;;;;;19.75;12.23;;;10.90;99.90;;;;;;5049547;28;20052;-79
2022/06/05 00:53:09;;;;;;;19.88;12.75;;;10.90;99.90;;;;;;5031297;28;20045;-79
2022/06/05 00:55:40;;;;;;;29.08;13.27;;;10.90;99.90;;;;;;5049481;28;20049;-79
2022/06/05 00:58:06;;;;;;;21.67;13.00;;;10.90;99.90;;;;;;5030515;28;20469;-79
2022/06/05 01:00:36;;;;;;;23.75;12.80;;;10.90;99.90;;;;;;5031408;28;20056;-79
2022/06/05 01:03:05;;;;;;;29.60;13.27;;;10.90;99.90;;;;;;5048448;28;20048;-79
2022/06/05 01:05:30;;;;;;;21.23;12.45;;;10.90;99.90;;;;;;5031307;28;20084;-78
2022/06/05 01:07:57;;;;;;;23.08;13.27;;;10.90;99.90;;;;;;5031905;28;20522;-79
2022/06/05 01:10:26;;;;;;;19.30;12.15;;;10.90;99.90;;;;;;5030672;28;20243;-79
2022/06/05 01:12:58;;;;;;;22.52;12.73;;;10.90;99.90;;;;;;5031005;28;20469;-79
2022/06/05 01:15:42;;;;;;;20.13;12.50;;;10.90;99.90;;;;;;5030462;28;20130;-79
2022/06/05 01:18:31;;;;;;;20.80;11.57;;;10.90;99.90;;;;;;5030021;28;20049;-79
2022/06/05 01:21:11;;;;;;;25.52;13.63;;;10.90;99.90;;;;;;5030961;28;20056;-78
2022/06/05 01:24:02;;;;;;;21.40;12.20;;;10.90;99.90;;;;;;5031371;28;20057;-78
2022/06/05 01:26:38;;;;;;;21.27;12.25;;;10.90;99.90;;;;;;5030868;28;20049;-78
2022/06/05 01:29:09;;;;;;;24.17;11.40;;;10.80;99.90;;;;;;5030944;28;20095;-79
2022/06/05 01:31:44;;;;;;;24.05;11.88;;;10.80;99.90;;;;;;5030588;28;20550;-79
2022/06/05 01:34:26;;;;;;;20.42;12.20;;;10.80;99.90;;;;;;5028859;28;20052;-78
2022/06/05 01:36:56;;;;;;;24.98;12.68;;;10.80;99.90;;;;;;5030575;28;20091;-79
2022/06/05 01:39:31;;;;;;;17.52;11.35;;;10.80;99.90;;;;;;5039567;28;20053;-78
2022/06/05 01:42:02;;;;;;;24.42;11.35;;;10.90;99.90;;;;;;5047848;28;20053;-80
2022/06/05 01:44:34;;;;;;;19.67;11.45;;;10.90;99.90;;;;;;5049021;28;20358;-80
2022/06/05 01:47:05;;;;;;;22.60;11.45;;;10.90;99.90;;;;;;5030170;28;20489;-79
2022/06/05 01:49:39;;;;;;;25.13;12.27;;;10.90;99.90;;;;;;5047476;28;20427;-79
2022/06/05 01:52:20;;;;;;;16.85;12.02;;;10.90;99.90;;;;;;5029582;28;20136;-79
2022/06/05 01:55:04;;;;;;;22.63;11.93;;;10.90;99.90;;;;;;5048080;28;20531;-79
2022/06/05 01:57:31;;;;;;;20.17;11.23;;;10.90;99.90;;;;;;5013817;28;20075;-80
2022/06/05 02:00:04;;;;;;;21.30;11.45;;;10.90;99.90;;;;;;5029854;28;20060;-79
2022/06/05 02:02:35;;;;;;;20.17;11.15;;;10.90;99.90;;;;;;5029760;28;20163;-79
2022/06/05 02:05:06;;;;;;;23.25;12.40;;;10.90;99.90;;;;;;5029258;28;20056;-79
2022/06/05 02:07:41;;;;;;;22.73;12.20;;;11.00;99.90;;;;;;5029938;28;20045;-79
2022/06/05 02:10:17;;;;;;;27.33;12.45;;;11.00;99.90;;;;;;5028924;28;20080;-79
2022/06/05 02:12:43;;;;;;;22.42;12.07;;;11.00;99.90;;;;;;5047866;28;20128;-79
2022/06/05 02:15:10;;;;;;;18.73;11.30;;;11.00;99.90;;;;;;5028904;28;20191;-78
2022/06/05 02:17:36;;;;;;;24.42;11.93;;;11.00;99.90;;;;;;5030174;28;20182;-79
2022/06/05 02:20:05;;;;;;;26.00;12.32;;;11.00;99.90;;;;;;5028837;28;20573;-79
2022/06/05 02:22:37;;;;;;;19.10;11.88;;;11.00;99.90;;;;;;5029326;28;20049;-79
2022/06/05 02:25:03;;;;;;;23.07;12.57;;;11.00;99.90;;;;;;5047465;28;20041;-79
2022/06/05 02:27:29;;;;;;;22.30;11.15;;;11.00;99.90;;;;;;5048248;28;20170;-79
2022/06/05 02:29:57;;;;;;;18.92;10.88;;;11.00;99.90;;;;;;5029136;28;20052;-79
2022/06/05 02:32:31;;;;;;;18.45;11.20;;;11.00;99.90;;;;;;5047324;28;20400;-79
2022/06/05 02:35:09;;;;;;;21.23;11.50;;;11.00;99.90;;;;;;5028667;28;20055;-79
2022/06/05 02:38:03;;;;;;;24.23;12.18;;;11.00;99.90;;;;;;5029315;28;20052;-79
2022/06/05 02:40:46;;;;;;;23.30;12.38;;;11.00;99.90;;;;;;5029432;28;20055;-79
2022/06/05 02:43:21;;;;;;;22.50;12.15;;;11.00;99.90;;;;;;5020833;28;20098;-79
2022/06/05 02:46:01;;;;;;;26.85;12.52;;;11.00;99.90;;;;;;5047178;28;20112;-79
2022/06/05 02:48:36;;;;;;;33.85;12.82;;;11.00;99.90;;;;;;5046340;28;20139;-79
2022/06/05 02:51:10;;;;;;;25.25;12.57;;;11.00;99.90;;;;;;5028765;28;20049;-79
2022/06/05 02:53:45;;;;;;;24.83;13.07;;;11.00;99.90;;;;;;5029544;28;20049;-79
2022/06/05 02:56:11;;;;;;;25.08;12.85;;;11.10;99.90;;;;;;5020139;28;20132;-79
2022/06/05 02:58:37;;;;;;;26.13;13.55;;;11.10;99.90;;;;;;5028627;28;20132;-79
2022/06/05 03:03:48;;;;;;;28.17;13.70;;;11.10;99.90;;;;;;5046323;28;20122;-79
2022/06/05 03:06:14;;;;;;;22.13;13.43;;;11.10;99.90;;;;;;5046459;28;20045;-79
2022/06/05 03:08:40;;;;;;;32.30;14.35;;;11.20;99.90;;;;;;5046823;28;20358;-79
2022/06/05 03:11:05;;;;;;;24.95;13.52;;;11.20;99.90;;;;;;5028631;28;20049;-79
2022/06/05 03:13:31;;;;;;;30.05;14.20;;;11.20;99.90;;;;;;5046781;28;20404;-79
2022/06/05 03:15:57;;;;;;;25.67;14.98;;;11.20;99.90;;;;;;5028611;28;20087;-79
2022/06/05 03:18:22;;;;;;;26.38;13.98;;;11.30;99.90;;;;;;5045406;28;20089;-79
2022/06/05 03:20:48;;;;;;;24.77;14.10;;;11.30;99.90;;;;;;5029309;28;20063;-79
2022/06/05 03:23:14;;;;;;;30.38;14.30;;;11.30;99.90;;;;;;5046103;28;20503;-79
2022/06/05 03:25:41;;;;;;;25.95;13.27;;;11.30;99.90;;;;;;5048412;28;20048;-79
2022/06/05 03:28:08;;;;;;;28.17;14.35;;;11.40;99.90;;;;;;5050150;28;20048;-79
2022/06/05 03:30:37;;;;;;;28.05;14.00;;;11.40;99.90;;;;;;5033103;28;20473;-79
2022/06/05 03:33:03;;;;;;;28.55;14.38;;;11.40;99.90;;;;;;5030531;28;20549;-79
2022/06/05 03:35:29;;;;;;;26.25;14.45;;;11.40;99.90;;;;;;5033335;28;20100;-79
2022/06/05 03:37:54;;;;;;;25.80;13.98;;;11.40;99.90;;;;;;5032852;28;20319;-79
2022/06/05 03:40:20;;;;;;;27.52;13.40;;;11.50;99.90;;;;;;5031742;28;20124;-79
2022/06/05 03:42:46;;;;;;;23.30;13.73;;;11.50;99.90;;;;;;5051600;28;20274;-79
2022/06/05 03:45:16;;;;;;;26.10;14.93;;;11.60;99.90;;;;;;5032215;28;20545;-79
2022/06/05 03:47:42;;;;;;;29.08;13.50;;;11.50;99.90;;;;;;5050691;28;20118;-79
2022/06/05 03:50:09;;;;;;;23.58;13.88;;;11.60;99.90;;;;;;5031001;28;20114;-79
2022/06/05 03:52:34;;;;;;;24.25;14.23;;;11.60;99.90;;;;;;5050913;28;20103;-79
2022/06/05 03:55:00;;;;;;;31.30;14.13;;;11.70;99.90;;;;;;5050447;28;20396;-79
2022/06/05 03:57:26;;;;;;;24.10;14.77;;;11.70;99.90;;;;;;5050315;28;20143;-79
2022/06/05 03:59:51;;;;;;;25.25;13.95;;;11.70;99.90;;;;;;5032704;28;20045;-79
2022/06/05 04:02:17;;;;;;;24.00;13.40;;;11.80;99.90;;;;;;5031657;28;20106;-79
2022/06/05 04:04:43;;;;;;;25.48;15.38;;;11.80;99.90;;;;;;5031649;28;20416;-79
2022/06/05 04:07:08;;;;;;;27.90;13.30;;;11.80;99.90;;;;;;5050433;28;20174;-79
2022/06/05 04:09:34;;;;;;;21.17;13.25;;;11.80;99.90;;;;;;5050060;28;20048;-80
2022/06/05 04:12:00;;;;;;;25.30;13.38;;;11.80;99.90;;;;;;5032998;28;20397;-79
2022/06/05 04:14:25;;;;;;;26.45;13.63;;;11.80;99.90;;;;;;5050218;28;20412;-80
2022/06/05 04:16:51;;;;;;;24.58;14.07;;;11.90;99.90;;;;;;5031909;28;20056;-79
2022/06/05 04:19:17;;;;;;;24.90;13.55;;;11.90;99.90;;;;;;5049206;28;20064;-79
2022/06/05 04:21:46;;;;;;;31.60;14.57;;;12.00;99.90;;;;;;5031504;28;20056;-79
2022/06/05 04:24:12;;;;;;;27.05;14.20;;;12.00;99.90;;;;;;5031812;28;20445;-79
2022/06/05 04:26:40;;;;;;;30.38;14.27;;;12.10;99.90;;;;;;5031877;28;20061;-79
2022/06/05 04:29:06;;;;;;;22.85;14.55;;;12.10;99.90;;;;;;5049126;28;20398;-79
2022/06/05 04:31:35;;;;;;;26.42;13.85;;;12.20;99.90;;;;;;5032061;28;20489;-79
2022/06/05 04:34:09;;;;;;;23.40;13.70;;;12.20;99.90;;;;;;5048284;28;20048;-79
2022/06/05 04:36:35;;;;;;;32.67;14.38;;;12.30;99.90;;;;;;5030665;28;20444;-79
2022/06/05 04:39:02;;;;;;;31.75;14.52;;;12.30;99.90;;;;;;5014759;28;20471;-80
2022/06/05 04:41:28;;;;;;;25.52;14.57;;;12.40;99.90;;;;;;5049562;28;20131;-79
2022/06/05 04:43:55;;;;;;;25.90;13.18;;;12.40;99.90;;;;;;5031389;28;20128;-79
2022/06/05 04:46:23;;;;;;;25.08;13.73;;;12.60;99.90;;;;;;5048957;28;20033;-79
2022/06/05 04:48:49;;;;;;;27.33;13.20;;;12.70;99.90;;;;;;5030374;28;20045;-79
2022/06/05 04:51:15;;;;;;;24.50;13.73;;;12.80;99.90;;;;;;5030926;28;20068;-79
2022/06/05 04:53:42;;;;;;;18.90;12.93;;;13.00;99.90;;;;;;5030789;28;20544;-79
2022/06/05 04:56:11;;;;;;;24.77;12.82;;;13.10;99.90;;;;;;5042059;28;20056;-79
2022/06/05 04:58:37;;;;;;;19.02;12.70;;;13.20;99.90;;;;;;5050632;28;20466;-79
2022/06/05 05:01:12;;;;;;;19.35;12.93;;;13.20;99.90;;;;;;5050444;28;20084;-80
2022/06/05 05:03:37;;;;;;;17.42;11.88;;;13.30;99.90;;;;;;5050596;28;20059;-79
2022/06/05 05:06:03;;;;;;;23.92;14.10;;;13.30;99.90;;;;;;5049719;28;20056;-79
2022/06/05 05:08:29;;;;;;;22.60;12.73;;;13.30;99.90;;;;;;5050562;28;20124;-80
2022/06/05 05:10:54;;;;;;;24.77;13.65;;;13.40;99.90;;;;;;5050801;28;20101;-79
2022/06/05 05:13:20;;;;;;;19.33;13.00;;;13.40;99.90;;;;;;5068659;28;20044;-79
2022/06/05 05:15:50;;;;;;;15.50;11.93;;;13.40;99.90;;;;;;5050703;28;20040;-79
2022/06/05 05:18:16;;;;;;;18.85;11.85;;;13.40;99.90;;;;;;5049610;28;20121;-79
2022/06/05 05:20:42;;;;;;;18.65;13.02;;;13.40;99.90;;;;;;5051073;28;20539;-79
2022/06/05 05:23:08;;;;;;;23.88;12.50;;;13.40;99.90;;;;;;5068059;28;20056;-79
2022/06/05 05:25:34;;;;;;;22.80;12.32;;;13.40;99.90;;;;;;5033705;28;20109;-79
2022/06/05 05:27:59;;;;;;;20.67;12.88;;;13.40;99.90;;;;;;5050527;28;20052;-79
2022/06/05 05:30:25;;;;;;;18.52;12.82;;;13.40;99.90;;;;;;5068403;28;20037;-78
2022/06/05 05:32:51;;;;;;;26.48;13.50;;;13.50;99.90;;;;;;5049085;28;20055;-79
2022/06/05 05:35:20;;;;;;;22.98;13.07;;;13.60;99.90;;;;;;5050065;28;20052;-79
2022/06/05 05:37:46;;;;;;;20.02;13.13;;;13.70;99.90;;;;;;5050143;28;20052;-80
2022/06/05 05:42:56;;;;;;;18.73;11.77;;;14.00;99.90;;;;;;5050036;28;20091;-80
2022/06/05 05:45:22;;;;;;;24.95;12.57;;;14.10;99.90;;;;;;5049908;28;20463;-79
2022/06/05 05:47:48;;;;;;;16.60;11.73;;;14.20;99.90;;;;;;5048891;28;20044;-79
2022/06/05 05:50:15;;;;;;;18.30;11.73;;;14.40;99.90;;;;;;5049403;28;20412;-79
2022/06/05 05:52:42;;;;;;;20.05;11.30;;;14.50;99.90;;;;;;5050349;28;20048;-79
2022/06/05 05:55:15;;;;;;;20.17;11.20;;;14.60;99.90;;;;;;5049011;28;20052;-80
2022/06/05 05:57:42;;;;;;;18.60;10.85;;;14.70;99.90;;;;;;5050152;28;20139;-79
2022/06/05 06:00:12;;;;;;;19.30;11.32;;;14.80;99.90;;;;;;5049653;28;20395;-79
2022/06/05 06:02:38;;;;;;;22.98;11.93;;;14.90;99.90;;;;;;5049785;28;20056;-80
2022/06/05 06:05:06;;;;;;;12.90;9.90;;;15.00;99.90;;;;;;5048534;28;20441;-79
2022/06/05 06:07:32;;;;;;;17.15;10.45;;;15.10;99.90;;;;;;5067532;28;20040;-80
2022/06/05 06:09:58;;;;;;;12.93;9.68;;;15.20;99.90;;;;;;5050224;28;20400;-79
2022/06/05 06:12:24;;;;;;;17.58;10.05;;;15.30;99.90;;;;;;5067225;28;20488;-79
2022/06/05 06:14:50;;;;;;;16.60;9.63;;;15.30;99.90;;;;;;5049358;28;20044;-79
2022/06/05 06:17:16;;;;;;;13.65;9.00;;;15.40;99.90;;;;;;5049269;28;20461;-80
2022/06/05 06:19:41;;;;;;;13.43;8.98;;;15.40;99.90;;;;;;5048937;28;20052;-80
2022/06/05 06:22:07;;;;;;;14.50;7.95;;;15.50;99.90;;;;;;5066888;28;20368;-79
2022/06/05 06:24:33;;;;;;;13.65;9.40;;;15.60;99.90;;;;;;5067312;28;20407;-79
2022/06/05 06:26:59;;;;;;;13.80;8.93;;;15.50;99.90;;;;;;5066628;28;20084;-79
2022/06/05 06:29:25;;;;;;;12.45;8.75;;;15.60;99.90;;;;;;5065291;28;20044;-80
2022/06/05 06:31:50;;;;;;;15.40;8.45;;;15.60;99.90;;;;;;5049481;28;20135;-80
2022/06/05 06:34:16;;;;;;;15.63;8.68;;;15.70;99.90;;;;;;5066588;28;20048;-79
2022/06/05 06:36:42;;;;;;;13.32;8.73;;;15.70;99.90;;;;;;5049389;28;20452;-80
2022/06/05 06:39:08;;;;;;;14.20;8.95;;;15.80;99.90;;;;;;5048517;28;20106;-80
2022/06/05 06:41:34;;;;;;;15.40;9.18;;;15.90;99.90;;;;;;5067952;28;20044;-81
2022/06/05 06:44:03;;;;;;;11.95;8.40;;;15.90;99.90;;;;;;5066854;28;20040;-80
2022/06/05 06:46:29;;;;;;;13.07;8.43;;;16.00;99.90;;;;;;5049747;28;20125;-80
2022/06/05 06:48:55;;;;;;;14.45;8.90;;;16.00;99.90;;;;;;5048270;28;20048;-80
2022/06/05 06:51:21;;;;;;;13.88;9.40;;;16.10;99.90;;;;;;5048504;28;20066;-80
2022/06/05 06:53:46;;;;;;;13.95;8.50;;;16.10;99.90;;;;;;5049194;28;20113;-80
2022/06/05 06:56:16;;;;;;;14.05;8.45;;;16.20;99.90;;;;;;5045162;28;20053;-80
2022/06/05 06:58:42;;;;;;;14.93;9.35;;;16.30;99.90;;;;;;5045984;28;20049;-80
2022/06/05 07:01:08;;;;;;;14.55;8.75;;;16.40;99.90;;;;;;5028171;28;20029;-80
2022/06/05 07:03:34;;;;;;;13.35;9.07;;;16.50;99.90;;;;;;5044781;28;20049;-80
2022/06/05 07:06:03;;;;;;;17.35;9.55;;;16.70;99.90;;;;;;5047163;28;20475;-80
2022/06/05 07:08:29;;;;;;;16.33;8.98;;;16.70;99.90;;;;;;5029453;28;20041;-80
2022/06/05 07:10:55;;;;;;;14.45;9.15;;;16.80;99.90;;;;;;5045688;28;20132;-80
2022/06/05 07:13:21;;;;;;;12.15;8.77;;;16.90;99.90;;;;;;5046713;28;20065;-80
2022/06/05 07:15:46;;;;;;;16.33;8.82;;;16.90;99.90;;;;;;5046071;28;20895;-80
2022/06/05 07:18:12;;;;;;;11.75;8.10;;;17.00;99.90;;;;;;5043661;28;20080;-80
2022/06/05 07:20:40;;;;;;;12.32;8.25;;;17.10;99.90;;;;;;5045733;28;20365;-81
2022/06/05 07:23:06;;;;;;;11.98;8.18;;;17.20;99.90;;;;;;5044554;28;20105;-80
2022/06/05 07:25:33;;;;;;;12.77;8.30;;;17.20;99.90;;;;;;5045357;28;20045;-83
2022/06/05 07:28:00;;;;;;;15.90;9.25;;;17.30;99.90;;;;;;5046788;28;20099;-82
2022/06/05 07:30:26;;;;;;;14.18;8.73;;;17.40;99.90;;;;;;5045063;28;20098;-84
2022/06/05 07:32:52;;;;;;;13.55;8.57;;;17.50;99.90;;;;;;5044514;28;20118;-81
2022/06/05 07:35:19;;;;;;;12.85;8.45;;;17.50;99.90;;;;;;5059256;28;20041;-84
2022/06/05 07:37:45;;;;;;;13.95;8.60;;;17.60;99.90;;;;;;5049092;28;20037;-82
2022/06/05 07:40:12;;;;;;;12.23;9.00;;;17.70;99.90;;;;;;5047845;28;20057;-83
2022/06/05 07:42:40;;;;;;;13.45;8.48;;;17.80;99.90;;;;;;5066678;28;20040;-83
2022/06/05 07:45:08;;;;;;;13.20;8.38;;;17.90;99.90;;;;;;5047512;28;20111;-82
2022/06/05 07:47:34;;;;;;;12.05;7.65;;;18.00;99.90;;;;;;5031899;28;20052;-82
2022/06/05 07:50:00;;;;;;;12.80;7.43;;;18.10;99.90;;;;;;5047838;28;20384;-83
2022/06/05 07:55:10;;;;;;;13.85;7.47;;;18.30;99.90;;;;;;5048444;28;20084;-83
2022/06/05 07:57:37;;;;;;;13.65;7.68;;;18.40;99.90;;;;;;5048013;28;20140;-83
2022/06/05 08:00:05;;;;;;;12.95;7.68;;;18.50;99.90;;;;;;5060474;28;20129;-83
2022/06/05 08:02:33;;;;;;;10.63;7.50;;;18.70;99.90;;;;;;5048998;28;20045;-83
2022/06/05 08:04:59;;;;;;;12.43;7.28;;;18.80;99.90;;;;;;5048133;28;20049;-82
2022/06/05 08:07:26;;;;;;;12.43;6.97;;;19.00;99.90;;;;;;5064586;28;20431;-82
2022/06/05 08:09:52;;;;;;;11.90;7.65;;;19.10;99.90;;;;;;5067259;28;20087;-84
2022/06/05 08:12:20;;;;;;;12.95;7.28;;;19.20;99.90;;;;;;5050931;28;20080;-83
2022/06/05 08:14:49;;;;;;;11.52;7.25;;;19.30;99.90;;;;;;5052081;28;20056;-82
2022/06/05 08:17:17;;;;;;;11.07;6.45;;;19.30;99.90;;;;;;5035016;28;20048;-82
2022/06/05 08:19:44;;;;;;;9.65;6.35;;;19.50;99.90;;;;;;5051768;28;20107;-81
2022/06/05 08:22:12;;;;;;;8.88;6.40;;;19.70;99.90;;;;;;5051031;28;20051;-82
2022/06/05 08:24:39;;;;;;;9.65;6.00;;;19.80;99.90;;;;;;5052109;28;20087;-82
2022/06/05 08:27:06;;;;;;;8.93;6.22;;;20.00;99.90;;;;;;5069453;28;20539;-83
2022/06/05 08:29:32;;;;;;;9.88;6.03;;;20.20;99.90;;;;;;5069969;28;20048;-82
2022/06/05 08:31:57;;;;;;;10.00;6.47;;;20.30;99.90;;;;;;5051763;28;20075;-82
2022/06/05 08:34:23;;;;;;;9.07;5.82;;;20.40;99.90;;;;;;5050523;28;20040;-82
2022/06/05 08:41:26;;;;;;;7.45;5.82;;;20.60;99.90;;;;;;5051676;28;20061;-82
2022/06/05 08:42:32;;;;;;;7.45;5.32;;;20.70;99.90;;;;;;5068567;28;20052;-82
2022/06/05 08:45:07;;;;;;;7.82;5.93;;;20.70;99.90;;;;;;5069595;28;20122;-82
2022/06/05 08:47:42;;;;;;;6.18;5.32;;;20.80;99.90;;;;;;5070094;28;20052;-81
2022/06/05 08:50:25;;;;;;;10.48;6.43;;;20.90;99.90;;;;;;5032773;28;20085;-82
2022/06/05 08:52:59;;;;;;;7.78;5.78;;;21.00;99.90;;;;;;5069784;28;20130;-82
2022/06/05 08:55:29;;;;;;;8.43;5.28;;;21.10;99.90;;;;;;5050345;28;20048;-82
2022/06/05 08:58:00;;;;;;;7.78;5.95;;;21.20;99.90;;;;;;5050792;28;20056;-82
2022/06/05 09:00:42;;;;;;;9.18;5.55;;;21.30;99.90;;;;;;5050847;28;20041;-81
2022/06/05 09:03:27;;;;;;;8.50;5.53;;;21.30;99.90;;;;;;5067657;28;20631;-82
2022/06/05 09:05:58;;;;;;;11.10;5.60;;;21.30;99.90;;;;;;5050749;28;20090;-82
2022/06/05 09:08:31;;;;;;;9.60;5.53;;;21.30;99.90;;;;;;5050743;28;20052;-83
2022/06/05 09:11:01;;;;;;;;;;;21.30;99.90;;;;;;5051641;28;20044;-82
2022/06/05 09:13:37;;;;;;;9.40;5.68;;;21.30;99.90;;;;;;5050386;28;19993;-82
2022/06/05 09:16:11;;;;;;;8.48;5.30;;;21.40;99.90;;;;;;5050733;28;20083;-82
2022/06/05 09:18:39;;;;;;;11.90;5.05;;;21.40;99.90;;;;;;5050167;28;20507;-84
2022/06/05 09:21:18;;;;;;;9.80;5.55;;;21.40;99.90;;;;;;5049985;28;20511;-84
2022/06/05 09:24:02;;;;;;;7.32;4.95;;;21.40;99.90;;;;;;5050199;28;20403;-83
2022/06/05 09:26:42;;;;;;;8.63;5.00;;;21.40;99.90;;;;;;5034338;28;20475;-83
2022/06/05 09:29:26;;;;;;;9.30;4.90;;;21.40;99.90;;;;;;5050209;28;20045;-83
2022/06/05 09:32:18;;;;;;;7.55;4.90;;;21.50;99.90;;;;;;5050448;28;20059;-85
2022/06/05 09:34:51;;;;;;;9.07;4.90;;;21.60;99.90;;;;;;5050125;28;20048;-82
2022/06/05 09:37:39;;;;;;;10.15;5.00;;;21.80;99.90;;;;;;5049743;28;20090;-82
2022/06/05 09:40:17;;;;;;;8.43;5.18;;;22.00;99.90;;;;;;5066821;28;20068;-84
2022/06/05 09:43:15;;;;;;;8.00;4.72;;;22.10;99.90;;;;;;5070195;28;20067;-82
2022/06/05 09:45:58;;;;;;;7.32;4.80;;;22.20;99.90;;;;;;5070210;28;20052;-82
2022/06/05 09:48:46;;;;;;;10.82;5.10;;;22.40;99.90;;;;;;5069240;28;20136;-83
2022/06/05 09:51:15;;;;;;;9.30;4.30;;;22.60;99.90;;;;;;5069637;28;20402;-83
2022/06/05 09:53:49;;;;;;;9.10;4.55;;;22.70;99.90;;;;;;5053067;28;20601;-83
2022/06/05 09:58:24;;;;;;;7.45;3.97;;;22.80;99.90;;;;;;5068575;28;20482;-81
2022/06/05 09:59:34;;;;;;;7.55;5.28;;;23.00;99.90;;;;;;5067095;28;20056;-81
2022/06/05 10:02:04;;;;;;;6.70;4.38;;;23.00;99.90;;;;;;5033118;28;20044;-81
2022/06/05 10:04:33;;;;;;;8.00;4.55;;;23.10;99.90;;;;;;5049412;28;20052;-81
2022/06/05 10:07:06;;;;;;;7.03;4.82;;;23.10;99.90;;;;;;5049154;28;20504;-80
2022/06/05 10:09:34;;;;;;;8.90;4.38;;;23.00;99.90;;;;;;5049792;28;20242;-81
2022/06/05 10:12:07;;;;;;;6.18;4.32;;;23.00;99.90;;;;;;5049913;28;20048;-81
2022/06/05 10:14:50;;;;;;;8.63;4.70;;;23.10;99.90;;;;;;5049765;28;20559;-81
2022/06/05 10:17:20;;;;;;;9.13;4.10;;;23.10;99.90;;;;;;5067254;28;20040;-81
2022/06/05 10:20:01;;;;;;;6.97;3.92;;;23.10;99.90;;;;;;5049332;28;20187;-81
2022/06/05 10:22:31;;;;;;;7.43;4.20;;;23.20;99.90;;;;;;5032622;28;20067;-81
2022/06/05 10:25:13;;;;;;;9.27;4.22;;;23.30;99.90;;;;;;5049721;28;20942;-81
2022/06/05 10:27:49;;;;;;;7.55;3.78;;;23.30;99.90;;;;;;5049274;28;20051;-80
2022/06/05 10:30:17;;;;;;;9.65;3.80;;;23.40;99.90;;;;;;5067145;28;20863;-81
2022/06/05 10:32:49;;;;;;;9.23;3.63;;;23.50;99.90;;;;;;5067562;28;20049;-80
2022/06/05 10:35:23;;;;;;;6.03;4.10;;;23.70;99.90;;;;;;5047785;28;20049;-84
2022/06/05 10:37:57;;;;;;;6.15;3.92;;;23.80;99.90;;;;;;5049287;28;20056;-85
2022/06/05 10:40:31;;;;;;;6.35;4.15;;;24.00;99.90;;;;;;5048380;28;20053;-84
2022/06/05 10:43:24;;;;;;;5.40;4.05;;;24.00;99.90;;;;;;5048871;28;20098;-84
2022/06/05 10:46:05;;;;;;;7.28;3.90;;;24.10;99.90;;;;;;5074791;28;20420;-84
2022/06/05 10:48:55;;;;;;;8.38;4.00;;;24.10;99.90;;;;;;5066312;28;20050;-84
2022/06/05 10:51:32;;;;;;;9.15;4.45;;;24.10;99.90;;;;;;5050804;28;20039;-84
2022/06/05 10:54:14;;;;;;;6.78;4.28;;;24.10;99.90;;;;;;5051790;28;20036;-84
2022/06/05 10:56:52;;;;;;;7.50;4.25;;;24.10;99.90;;;;;;5051284;28;20044;-84
2022/06/05 10:59:27;;;;;;;7.90;4.20;;;24.10;99.90;;;;;;5067389;28;20067;-83
2022/06/05 11:02:20;;;;;;;9.68;3.85;;;24.20;99.90;;;;;;5069355;28;20051;-84
2022/06/05 11:04:56;;;;;;;7.10;3.63;;;24.20;99.90;;;;;;5062814;28;20051;-84
2022/06/05 11:07:37;;;;;;;10.95;4.30;;;24.20;99.90;;;;;;5066819;28;20126;-84
2022/06/05 11:13:42;;;;;;;6.28;3.60;;;24.10;99.90;;;;;;5066810;28;20139;-83
2022/06/05 11:16:16;;;;;;;5.30;3.38;;;24.10;99.90;;;;;;5085140;28;20044;-84
2022/06/05 11:19:08;;;;;;;4.72;3.35;;;24.10;99.90;;;;;;5084973;28;20051;-83
2022/06/05 11:21:36;;;;;;;6.47;3.28;;;24.10;99.90;;;;;;5086291;28;20043;-83
2022/06/05 11:24:06;;;;;;;7.20;3.47;;;24.10;99.90;;;;;;5068000;28;20036;-83
2022/06/05 11:26:38;;;;;;;6.03;3.35;;;24.10;99.90;;;;;;5086110;28;20101;-82
2022/06/05 11:29:19;;;;;;;7.70;3.33;;;24.20;99.90;;;;;;5052173;28;20052;-81
2022/06/05 11:32:15;;;;;;;6.40;3.17;;;24.20;99.90;;;;;;5048158;28;20055;-81
2022/06/05 11:34:48;;;;;;;7.38;3.38;;;24.20;99.90;;;;;;5031546;28;20040;-82
2022/06/05 11:37:23;;;;;;;5.85;3.53;;;24.30;99.90;;;;;;5031838;28;20060;-82
2022/06/05 11:40:01;;;;;;;5.25;2.80;;;24.30;99.90;;;;;;5047804;28;20037;-81
2022/06/05 11:42:37;;;;;;;10.77;2.88;;;24.30;99.90;;;;;;5047975;28;20044;-82
2022/06/05 11:45:04;;;;;;;6.80;3.03;;;24.20;99.90;;;;;;5030879;28;20135;-82
2022/06/05 11:47:54;;;;;;;7.60;3.53;;;24.30;99.90;;;;;;5034457;28;20468;-83
2022/06/05 11:50:26;;;;;;;6.88;3.10;;;24.20;99.90;;;;;;5070521;28;20381;-82
2022/06/05 11:53:10;;;;;;;8.25;3.30;;;24.20;99.90;;;;;;5051460;28;20119;-82
2022/06/05 11:55:39;;;;;;;9.90;3.25;;;24.20;99.90;;;;;;5069878;28;20060;-82
2022/06/05 11:58:11;;;;;;;6.32;3.20;;;24.20;99.90;;;;;;5072106;28;20056;-83
2022/06/05 12:00:44;;;;;;;6.13;2.97;;;24.20;99.90;;;;;;5072210;28;20036;-82
2022/06/05 12:03:18;;;;;;;6.68;3.53;;;24.30;99.90;;;;;;5070401;28;20090;-82
2022/06/05 12:06:06;;;;;;;4.82;2.78;;;24.30;99.90;;;;;;5072076;28;20085;-82
2022/06/05 12:08:37;;;;;;;5.22;2.95;;;24.40;99.90;;;;;;5071588;28;20135;-82
2022/06/05 12:11:13;;;;;;;5.68;3.38;;;24.30;99.90;;;;;;5071877;28;20391;-82
2022/06/05 12:13:58;;;;;;;10.57;3.00;;;24.30;99.90;;;;;;5055506;28;20048;-83
2022/06/05 12:17:01;;;;;;;6.53;3.00;;;24.30;99.90;;;;;;5090578;28;20048;-83
2022/06/05 12:19:45;;;;;;;4.53;2.90;;;24.30;99.90;;;;;;5050608;28;20526;-82
2022/06/05 12:22:28;;;;;;;7.32;3.30;;;24.30;99.90;;;;;;5034179;28;20123;-83
2022/06/05 12:25:20;;;;;;;5.82;3.10;;;24.30;99.90;;;;;;5069762;28;20040;-83
2022/06/05 12:27:53;;;;;;;7.82;2.95;;;24.30;99.90;;;;;;5068373;28;20055;-83
2022/06/05 12:30:23;;;;;;;8.80;3.30;;;24.40;99.90;;;;;;5068334;28;20123;-82
2022/06/05 12:33:01;;;;;;;5.95;3.33;;;24.60;99.90;;;;;;5067832;28;20430;-82
2022/06/05 12:35:38;;;;;;;6.13;2.97;;;24.70;99.90;;;;;;5067768;28;20052;-83
2022/06/05 12:38:20;;;;;;;7.55;3.20;;;24.60;99.90;;;;;;5034651;28;20499;-83
2022/06/05 12:40:55;;;;;;;9.77;3.07;;;24.70;99.90;;;;;;5069004;28;20376;-83
2022/06/05 12:43:28;;;;;;;9.90;3.03;;;24.70;99.90;;;;;;5067517;28;20135;-83
2022/06/05 12:46:02;;;;;;;5.80;2.90;;;24.70;99.90;;;;;;5034731;28;20037;-83
2022/06/05 12:48:30;;;;;;;6.43;2.95;;;24.60;99.90;;;;;;5067402;28;20044;-83
2022/06/05 12:51:12;;;;;;;6.20;3.05;;;24.60;99.90;;;;;;5068367;28;20392;-83
2022/06/05 12:53:49;;;;;;;70.22;6.13;;;24.60;99.90;;;;;;5051609;28;20079;-83
2022/06/05 12:56:24;;;;;;;9.10;3.33;;;24.50;99.90;;;;;;5050138;28;20156;-83
2022/06/05 12:59:03;;;;;;;42.65;5.07;;;24.50;99.90;;;;;;5051476;28;20071;-83
2022/06/05 13:01:48;;;;;;;6.57;3.22;;;24.50;99.90;;;;;;5070425;28;20055;-83
2022/06/05 13:04:30;;;;;;;7.07;2.95;;;24.40;99.90;;;;;;5049616;28;20049;-83
2022/06/05 13:07:05;;;;;;;6.85;3.38;;;24.40;99.90;;;;;;5051784;28;20131;-82
2022/06/05 13:09:40;;;;;;;7.97;3.30;;;24.30;99.90;;;;;;5034453;28;20051;-82
2022/06/05 13:12:16;;;;;;;7.38;3.50;;;24.30;99.90;;;;;;5034202;28;20502;-83
2022/06/05 13:14:50;;;;;;;10.48;3.63;;;24.30;99.90;;;;;;5051273;28;20040;-83